createdAt,value
2018-03-01T00:00:04.028Z,51.47
2018-03-01T00:01:04.038Z,51.58
2018-03-01T00:02:04.066Z,51.64
2018-03-01T00:03:04.042Z,51.5
2018-03-01T00:04:04.046Z,51.53
2018-03-01T00:05:04.053Z,51.53
2018-03-01T00:06:04.211Z,51.4
2018-03-01T00:07:04.064Z,51.52
2018-03-01T00:08:04.065Z,51.51
2018-03-01T00:09:04.077Z,51.42
2018-03-01T00:10:04.083Z,51.41
2018-03-01T00:11:04.098Z,51.46
2018-03-01T00:12:04.088Z,51.51
2018-03-01T00:13:04.105Z,51.59
2018-03-01T00:14:04.088Z,51.6
2018-03-01T00:15:04.099Z,51.55
2018-03-01T00:16:04.102Z,51.68
2018-03-01T00:17:04.108Z,51.55
2018-03-01T00:18:04.098Z,51.38
2018-03-01T00:19:04.106Z,51.48
2018-03-01T00:20:04.108Z,51.59
2018-03-01T00:21:04.112Z,51.63
2018-03-01T00:22:04.145Z,51.74
2018-03-01T00:23:04.121Z,51.7
2018-03-01T00:24:04.129Z,51.82
2018-03-01T00:25:04.131Z,51.78
2018-03-01T00:26:04.136Z,51.64
2018-03-01T00:27:04.160Z,51.71
2018-03-01T00:28:04.310Z,51.79
2018-03-01T00:29:04.145Z,51.69
2018-03-01T00:30:04.152Z,51.7
2018-03-01T00:31:04.156Z,51.53
2018-03-01T00:32:04.178Z,51.41
2018-03-01T00:33:04.164Z,51.38
2018-03-01T00:34:04.162Z,51.42
2018-03-01T00:35:04.167Z,51.43
2018-03-01T00:36:04.172Z,51.51
2018-03-01T00:37:04.165Z,51.56
2018-03-01T00:38:04.171Z,51.6
2018-03-01T00:39:04.173Z,51.65
2018-03-01T00:40:04.184Z,51.65
2018-03-01T00:41:04.188Z,51.69
2018-03-01T00:42:04.193Z,51.73
2018-03-01T00:43:04.195Z,51.79
2018-03-01T00:44:04.195Z,51.75
2018-03-01T00:45:04.205Z,51.7
2018-03-01T00:46:04.207Z,51.72
2018-03-01T00:47:04.202Z,51.78
2018-03-01T00:48:05.881Z,51.81
2018-03-01T00:49:04.224Z,51.82
2018-03-01T00:50:04.223Z,51.8
2018-03-01T00:51:04.226Z,51.87
2018-03-01T00:52:04.226Z,51.91
2018-03-01T00:53:08.179Z,51.92
2018-03-01T00:54:04.232Z,51.99
2018-03-01T00:55:04.233Z,51.95
2018-03-01T00:56:04.240Z,51.89
2018-03-01T00:57:04.245Z,51.91
2018-03-01T00:58:04.252Z,52.03
2018-03-01T00:59:04.251Z,52.1
2018-03-01T01:00:04.254Z,52.01
2018-03-01T01:01:04.258Z,51.98
2018-03-01T01:02:04.266Z,52.06
2018-03-01T01:03:04.273Z,51.97
2018-03-01T01:04:04.274Z,51.89
2018-03-01T01:05:04.280Z,51.89
2018-03-01T01:06:04.298Z,51.9
2018-03-01T01:07:04.282Z,51.96
2018-03-01T01:08:04.284Z,52.04
2018-03-01T01:09:04.286Z,51.86
2018-03-01T01:10:04.289Z,51.86
2018-03-01T01:11:04.549Z,51.89
2018-03-01T01:12:04.289Z,51.96
2018-03-01T01:13:04.292Z,51.87
2018-03-01T01:14:04.304Z,51.95
2018-03-01T01:15:04.308Z,51.93
2018-03-01T01:16:04.323Z,51.98
2018-03-01T01:17:04.300Z,52.18
2018-03-01T01:18:04.308Z,52.12
2018-03-01T01:19:04.317Z,51.98
2018-03-01T01:20:04.318Z,51.92
2018-03-01T01:21:04.316Z,52.03
2018-03-01T01:22:04.322Z,51.95
2018-03-01T01:23:04.332Z,51.96
2018-03-01T01:24:04.329Z,51.95
2018-03-01T01:25:04.330Z,51.93
2018-03-01T01:26:04.357Z,51.93
2018-03-01T01:27:04.334Z,51.93
2018-03-01T01:28:04.333Z,51.81
2018-03-01T01:29:04.342Z,51.84
2018-03-01T01:30:04.343Z,51.8
2018-03-01T01:31:04.656Z,51.75
2018-03-01T01:32:04.356Z,51.92
2018-03-01T01:33:04.371Z,51.8
2018-03-01T01:34:04.356Z,51.81
2018-03-01T01:35:04.357Z,51.81
2018-03-01T01:36:04.383Z,51.85
2018-03-01T01:37:04.366Z,51.9
2018-03-01T01:38:04.367Z,51.87
2018-03-01T01:39:04.377Z,51.84
2018-03-01T01:40:04.379Z,51.76
2018-03-01T01:41:04.542Z,51.8
2018-03-01T01:42:04.453Z,51.68
2018-03-01T01:43:04.395Z,51.68
2018-03-01T01:44:04.391Z,51.78
2018-03-01T01:45:04.387Z,51.76
2018-03-01T01:46:04.398Z,51.77
2018-03-01T01:47:04.416Z,51.82
2018-03-01T01:48:04.390Z,51.8
2018-03-01T01:49:04.399Z,51.76
2018-03-01T01:50:04.398Z,51.8
2018-03-01T01:51:04.406Z,51.68
2018-03-01T01:52:04.408Z,51.72
2018-03-01T01:53:04.415Z,51.77
2018-03-01T01:54:04.422Z,51.79
2018-03-01T01:55:04.420Z,51.69
2018-03-01T01:56:04.441Z,51.68
2018-03-01T01:57:04.427Z,51.67
2018-03-01T01:58:04.449Z,51.68
2018-03-01T01:59:04.436Z,51.73
2018-03-01T02:00:04.434Z,51.83
2018-03-01T02:01:04.433Z,51.85
2018-03-01T02:02:04.441Z,51.86
2018-03-01T02:03:04.472Z,51.92
2018-03-01T02:04:04.450Z,51.82
2018-03-01T02:05:04.441Z,51.74
2018-03-01T02:06:04.446Z,51.74
2018-03-01T02:07:04.454Z,51.75
2018-03-01T02:08:04.451Z,51.8
2018-03-01T02:09:04.482Z,51.97
2018-03-01T02:10:04.451Z,51.89
2018-03-01T02:11:04.457Z,51.84
2018-03-01T02:12:04.463Z,51.89
2018-03-01T02:13:04.472Z,51.82
2018-03-01T02:14:04.466Z,51.87
2018-03-01T02:15:04.471Z,51.91
2018-03-01T02:16:04.494Z,51.81
2018-03-01T02:17:04.478Z,51.83
2018-03-01T02:18:04.503Z,51.94
2018-03-01T02:19:04.493Z,51.77
2018-03-01T02:20:04.493Z,51.95
2018-03-01T02:21:04.800Z,51.98
2018-03-01T02:22:04.526Z,51.98
2018-03-01T02:23:04.504Z,52.19
2018-03-01T02:24:04.526Z,52
2018-03-01T02:25:04.520Z,51.86
2018-03-01T02:26:04.539Z,51.96
2018-03-01T02:27:04.520Z,52.06
2018-03-01T02:28:04.524Z,52.02
2018-03-01T02:29:04.534Z,51.96
2018-03-01T02:30:04.698Z,51.87
2018-03-01T02:31:04.562Z,51.88
2018-03-01T02:32:04.547Z,51.82
2018-03-01T02:33:04.555Z,51.91
2018-03-01T02:34:04.554Z,52
2018-03-01T02:35:04.547Z,52.02
2018-03-01T02:36:11.483Z,52.12
2018-03-01T02:37:04.557Z,52.05
2018-03-01T02:38:04.552Z,52.19
2018-03-01T02:39:04.561Z,52.21
2018-03-01T02:40:04.561Z,52.38
2018-03-01T02:41:04.566Z,52.45
2018-03-01T02:42:04.584Z,52.46
2018-03-01T02:43:04.583Z,52.38
2018-03-01T02:44:04.601Z,52.42
2018-03-01T02:45:04.584Z,52.48
2018-03-01T02:46:04.585Z,52.49
2018-03-01T02:47:04.586Z,52.52
2018-03-01T02:48:04.739Z,52.43
2018-03-01T02:49:04.611Z,52.5
2018-03-01T02:50:04.599Z,52.43
2018-03-01T02:51:04.599Z,52.37
2018-03-01T02:52:04.604Z,52.41
2018-03-01T02:53:04.614Z,52.45
2018-03-01T02:54:04.642Z,52.31
2018-03-01T02:55:04.613Z,52.41
2018-03-01T02:56:04.611Z,52.42
2018-03-01T02:57:04.771Z,52.52
2018-03-01T02:58:04.623Z,52.55
2018-03-01T02:59:05.051Z,52.52
2018-03-01T03:00:04.642Z,52.42
2018-03-01T03:01:04.635Z,52.39
2018-03-01T03:02:04.650Z,52.37
2018-03-01T03:03:04.642Z,52.47
2018-03-01T03:04:04.676Z,52.39
2018-03-01T03:05:04.658Z,52.28
2018-03-01T03:06:04.722Z,52.28
2018-03-01T03:07:04.663Z,52.5
2018-03-01T03:08:04.657Z,52.46
2018-03-01T03:09:04.662Z,52.27
2018-03-01T03:10:04.704Z,52.39
2018-03-01T03:11:04.679Z,52.4
2018-03-01T03:12:04.683Z,52.18
2018-03-01T03:13:04.682Z,52.28
2018-03-01T03:14:04.692Z,52.23
2018-03-01T03:15:04.722Z,52.22
2018-03-01T03:16:04.695Z,52
2018-03-01T03:17:04.694Z,52.13
2018-03-01T03:18:04.700Z,52.09
2018-03-01T03:19:04.704Z,52.21
2018-03-01T03:20:04.881Z,52.13
2018-03-01T03:21:04.718Z,52.06
2018-03-01T03:22:04.709Z,52.12
2018-03-01T03:23:04.718Z,52.1
2018-03-01T03:24:04.721Z,52.11
2018-03-01T03:25:04.720Z,52.19
2018-03-01T03:26:04.721Z,52.28
2018-03-01T03:27:04.726Z,52.14
2018-03-01T03:28:04.730Z,52.13
2018-03-01T03:29:04.731Z,52.18
2018-03-01T03:30:04.729Z,52.13
2018-03-01T03:31:04.740Z,52.19
2018-03-01T03:32:04.736Z,52.14
2018-03-01T03:33:04.740Z,52.04
2018-03-01T03:34:04.734Z,52.08
2018-03-01T03:35:04.748Z,52.2
2018-03-01T03:36:04.776Z,52.15
2018-03-01T03:37:04.750Z,52.01
2018-03-01T03:38:04.758Z,52.08
2018-03-01T03:39:04.761Z,52.03
2018-03-01T03:40:04.761Z,52.04
2018-03-01T03:41:05.049Z,52.11
2018-03-01T03:42:04.762Z,52.08
2018-03-01T03:43:04.770Z,52.21
2018-03-01T03:44:04.770Z,52.18
2018-03-01T03:45:04.778Z,52.19
2018-03-01T03:46:04.803Z,52.07
2018-03-01T03:47:04.789Z,52
2018-03-01T03:48:04.788Z,52.26
2018-03-01T03:49:04.793Z,52.21
2018-03-01T03:50:04.813Z,52.23
2018-03-01T03:51:04.834Z,52.33
2018-03-01T03:52:04.823Z,52.34
2018-03-01T03:53:04.804Z,52.23
2018-03-01T03:54:04.806Z,52.2
2018-03-01T03:55:04.817Z,52.14
2018-03-01T03:56:04.820Z,52.22
2018-03-01T03:57:04.843Z,52.29
2018-03-01T03:58:04.822Z,52.23
2018-03-01T03:59:04.823Z,52.22
2018-03-01T04:00:04.826Z,52.31
2018-03-01T04:01:04.833Z,52.27
2018-03-01T04:02:04.834Z,52.27
2018-03-01T04:03:05.022Z,52.18
2018-03-01T04:04:04.848Z,52.22
2018-03-01T04:05:04.841Z,52.25
2018-03-01T04:06:04.848Z,52.06
2018-03-01T04:07:04.851Z,52.04
2018-03-01T04:08:05.023Z,52.02
2018-03-01T04:09:04.857Z,52.04
2018-03-01T04:10:04.865Z,52.17
2018-03-01T04:11:04.867Z,52.16
2018-03-01T04:12:05.159Z,52.06
2018-03-01T04:13:04.876Z,52.15
2018-03-01T04:14:04.874Z,52.19
2018-03-01T04:15:04.877Z,52.34
2018-03-01T04:16:04.883Z,52.09
2018-03-01T04:17:04.907Z,52.17
2018-03-01T04:18:04.883Z,52.21
2018-03-01T04:19:04.892Z,52.14
2018-03-01T04:20:04.891Z,52.16
2018-03-01T04:21:04.892Z,52.3
2018-03-01T04:22:04.896Z,52.33
2018-03-01T04:23:04.896Z,52.28
2018-03-01T04:24:04.896Z,52.3
2018-03-01T04:25:04.898Z,52.43
2018-03-01T04:26:04.911Z,52.37
2018-03-01T04:27:04.905Z,52.22
2018-03-01T04:28:04.934Z,52.22
2018-03-01T04:29:04.912Z,52.19
2018-03-01T04:30:04.923Z,52.21
2018-03-01T04:31:04.945Z,52.31
2018-03-01T04:32:04.923Z,52.41
2018-03-01T04:33:05.200Z,52.43
2018-03-01T04:34:04.957Z,52.42
2018-03-01T04:35:04.937Z,52.38
2018-03-01T04:36:05.016Z,52.29
2018-03-01T04:37:04.946Z,52.31
2018-03-01T04:38:04.967Z,52.13
2018-03-01T04:39:04.955Z,52.18
2018-03-01T04:40:04.954Z,52.18
2018-03-01T04:41:04.950Z,52.35
2018-03-01T04:42:04.956Z,52.31
2018-03-01T04:43:04.963Z,52.29
2018-03-01T04:44:04.971Z,52.27
2018-03-01T04:45:04.965Z,52.31
2018-03-01T04:46:04.966Z,52.21
2018-03-01T04:47:04.984Z,52.21
2018-03-01T04:48:04.976Z,52.07
2018-03-01T04:49:05.234Z,52.48
2018-03-01T04:50:04.978Z,52.24
2018-03-01T04:51:04.983Z,52.31
2018-03-01T04:52:04.984Z,52.47
2018-03-01T04:53:04.979Z,52.38
2018-03-01T04:54:05.004Z,52.4
2018-03-01T04:55:04.990Z,52.44
2018-03-01T04:56:04.998Z,52.42
2018-03-01T04:57:04.998Z,52.24
2018-03-01T04:58:05.078Z,52.37
2018-03-01T04:59:05.161Z,52.45
2018-03-01T05:00:05.277Z,52.44
2018-03-01T05:01:05.010Z,52.62
2018-03-01T05:02:05.168Z,52.58
2018-03-01T05:03:05.178Z,52.63
2018-03-01T05:04:05.100Z,52.61
2018-03-01T05:05:05.040Z,52.52
2018-03-01T05:06:05.024Z,52.51
2018-03-01T05:07:05.029Z,52.4
2018-03-01T05:08:05.035Z,52.5
2018-03-01T05:09:05.049Z,52.41
2018-03-01T05:10:05.197Z,52.46
2018-03-01T05:11:05.060Z,52.53
2018-03-01T05:12:05.043Z,52.72
2018-03-01T05:13:05.042Z,52.74
2018-03-01T05:14:05.051Z,52.65
2018-03-01T05:15:05.057Z,52.9
2018-03-01T05:16:05.709Z,52.71
2018-03-01T05:17:05.057Z,52.84
2018-03-01T05:18:05.059Z,52.74
2018-03-01T05:19:05.064Z,52.79
2018-03-01T05:20:05.119Z,52.77
2018-03-01T05:21:05.099Z,52.78
2018-03-01T05:22:05.074Z,52.86
2018-03-01T05:23:05.091Z,52.87
2018-03-01T05:24:05.076Z,52.85
2018-03-01T05:25:05.090Z,52.74
2018-03-01T05:26:05.075Z,52.86
2018-03-01T05:27:05.073Z,52.95
2018-03-01T05:28:05.096Z,53.03
2018-03-01T05:29:05.079Z,52.66
2018-03-01T05:30:05.080Z,52.55
2018-03-01T05:31:05.082Z,52.65
2018-03-01T05:32:05.083Z,52.66
2018-03-01T05:33:05.073Z,52.69
2018-03-01T05:34:05.084Z,52.69
2018-03-01T05:35:05.107Z,52.65
2018-03-01T05:36:05.086Z,52.7
2018-03-01T05:37:05.090Z,52.66
2018-03-01T05:38:05.091Z,52.66
2018-03-01T05:39:05.091Z,52.61
2018-03-01T05:40:05.116Z,52.85
2018-03-01T05:41:05.093Z,52.81
2018-03-01T05:42:05.096Z,52.86
2018-03-01T05:43:05.100Z,52.86
2018-03-01T05:44:05.108Z,52.83
2018-03-01T05:45:05.131Z,52.96
2018-03-01T05:46:05.137Z,53
2018-03-01T05:47:05.113Z,52.88
2018-03-01T05:48:05.118Z,52.94
2018-03-01T05:49:05.145Z,53.03
2018-03-01T05:50:05.148Z,52.97
2018-03-01T05:51:05.124Z,52.8
2018-03-01T05:52:05.133Z,52.85
2018-03-01T05:53:05.139Z,52.75
2018-03-01T05:54:05.130Z,52.69
2018-03-01T05:55:05.185Z,52.61
2018-03-01T05:56:05.142Z,52.64
2018-03-01T05:57:05.145Z,52.65
2018-03-01T05:58:05.145Z,52.55
2018-03-01T05:59:05.147Z,52.64
2018-03-01T06:00:05.148Z,52.8
2018-03-01T06:01:05.180Z,52.9
2018-03-01T06:02:05.164Z,52.79
2018-03-01T06:03:05.171Z,52.65
2018-03-01T06:04:05.175Z,52.66
2018-03-01T06:05:05.176Z,52.68
2018-03-01T06:06:05.180Z,52.94
2018-03-01T06:07:05.181Z,53.06
2018-03-01T06:08:05.186Z,52.94
2018-03-01T06:09:05.189Z,52.93
2018-03-01T06:10:05.200Z,52.95
2018-03-01T06:11:05.204Z,53.01
2018-03-01T06:12:05.195Z,52.94
2018-03-01T06:13:05.199Z,53.02
2018-03-01T06:14:05.204Z,53.11
2018-03-01T06:15:05.215Z,52.97
2018-03-01T06:16:05.220Z,52.93
2018-03-01T06:17:05.209Z,52.96
2018-03-01T06:18:05.210Z,52.95
2018-03-01T06:19:05.218Z,53
2018-03-01T06:20:05.220Z,53.04
2018-03-01T06:21:05.249Z,53.01
2018-03-01T06:22:05.267Z,53.09
2018-03-01T06:23:05.228Z,53.08
2018-03-01T06:24:05.257Z,53.08
2018-03-01T06:25:05.232Z,53.26
2018-03-01T06:26:05.254Z,53.15
2018-03-01T06:27:05.246Z,53.05
2018-03-01T06:28:05.246Z,53.01
2018-03-01T06:29:05.246Z,53.19
2018-03-01T06:30:05.488Z,53.16
2018-03-01T06:31:05.398Z,53.22
2018-03-01T06:32:05.248Z,53.12
2018-03-01T06:33:05.407Z,52.99
2018-03-01T06:34:05.262Z,53
2018-03-01T06:35:05.271Z,53.07
2018-03-01T06:36:05.272Z,53.06
2018-03-01T06:37:05.272Z,53.15
2018-03-01T06:38:05.265Z,53.17
2018-03-01T06:39:05.307Z,53.09
2018-03-01T06:40:05.263Z,52.95
2018-03-01T06:41:05.271Z,52.78
2018-03-01T06:42:05.268Z,52.93
2018-03-01T06:43:05.265Z,52.95
2018-03-01T06:44:05.306Z,53
2018-03-01T06:45:05.284Z,52.87
2018-03-01T06:46:05.276Z,53.03
2018-03-01T06:47:05.289Z,53.09
2018-03-01T06:48:05.289Z,53.05
2018-03-01T06:49:05.547Z,53.11
2018-03-01T06:50:05.303Z,52.89
2018-03-01T06:51:05.294Z,52.93
2018-03-01T06:52:05.297Z,53.04
2018-03-01T06:53:05.321Z,52.87
2018-03-01T06:54:05.329Z,52.96
2018-03-01T06:55:05.306Z,53.03
2018-03-01T06:56:05.304Z,52.92
2018-03-01T06:57:05.305Z,52.9
2018-03-01T06:58:05.306Z,52.91
2018-03-01T06:59:05.364Z,52.92
2018-03-01T07:00:05.344Z,52.94
2018-03-01T07:01:05.314Z,52.94
2018-03-01T07:02:05.317Z,53.14
2018-03-01T07:03:05.324Z,53.05
2018-03-01T07:04:05.331Z,52.89
2018-03-01T07:05:05.357Z,52.84
2018-03-01T07:06:05.341Z,52.77
2018-03-01T07:07:05.344Z,52.83
2018-03-01T07:08:05.351Z,52.9
2018-03-01T07:09:05.350Z,52.82
2018-03-01T07:10:05.534Z,52.9
2018-03-01T07:11:05.357Z,52.86
2018-03-01T07:12:05.363Z,52.75
2018-03-01T07:13:05.390Z,52.82
2018-03-01T07:14:05.373Z,52.62
2018-03-01T07:15:05.446Z,52.51
2018-03-01T07:16:05.393Z,52.51
2018-03-01T07:17:05.375Z,52.51
2018-03-01T07:18:05.412Z,52.36
2018-03-01T07:19:05.391Z,52.28
2018-03-01T07:20:05.535Z,52.34
2018-03-01T07:21:05.409Z,52.24
2018-03-01T07:22:05.389Z,52.3
2018-03-01T07:23:05.397Z,52.34
2018-03-01T07:24:05.396Z,52.37
2018-03-01T07:25:05.548Z,52.33
2018-03-01T07:26:05.393Z,52.48
2018-03-01T07:27:05.425Z,52.48
2018-03-01T07:28:05.394Z,52.34
2018-03-01T07:29:05.402Z,52.35
2018-03-01T07:30:05.406Z,52.25
2018-03-01T07:31:05.402Z,52.08
2018-03-01T07:32:05.422Z,51.91
2018-03-01T07:33:05.415Z,51.9
2018-03-01T07:34:05.409Z,51.83
2018-03-01T07:35:05.414Z,51.67
2018-03-01T07:36:05.437Z,51.72
2018-03-01T07:37:05.457Z,51.77
2018-03-01T07:38:05.433Z,51.75
2018-03-01T07:39:05.456Z,51.55
2018-03-01T07:40:05.434Z,51.5
2018-03-01T07:41:05.484Z,51.47
2018-03-01T07:42:05.441Z,51.54
2018-03-01T07:43:05.592Z,51.66
2018-03-01T07:44:05.434Z,51.67
2018-03-01T07:45:05.446Z,51.53
2018-03-01T07:46:05.480Z,51.36
2018-03-01T07:47:05.454Z,51.19
2018-03-01T07:48:05.457Z,51.2
2018-03-01T07:49:05.456Z,51.46
2018-03-01T07:50:05.454Z,51.27
2018-03-01T07:51:05.494Z,51.18
2018-03-01T07:52:05.467Z,51.15
2018-03-01T07:53:05.464Z,51.13
2018-03-01T07:54:05.471Z,51.17
2018-03-01T07:55:05.469Z,51.2
2018-03-01T07:56:05.470Z,51.33
2018-03-01T07:57:05.490Z,51.09
2018-03-01T07:58:05.488Z,50.95
2018-03-01T07:59:05.472Z,51.07
2018-03-01T08:00:05.471Z,51
2018-03-01T08:01:05.498Z,50.83
2018-03-01T08:02:05.516Z,50.83
2018-03-01T08:03:05.480Z,50.72
2018-03-01T08:04:05.497Z,50.67
2018-03-01T08:05:05.493Z,50.68
2018-03-01T08:06:05.536Z,50.67
2018-03-01T08:07:05.514Z,50.53
2018-03-01T08:08:05.495Z,50.42
2018-03-01T08:09:05.494Z,50.49
2018-03-01T08:10:05.497Z,50.35
2018-03-01T08:11:05.513Z,50.4
2018-03-01T08:12:05.776Z,50.61
2018-03-01T08:13:05.505Z,50.28
2018-03-01T08:14:05.510Z,50.29
2018-03-01T08:15:05.507Z,50.54
2018-03-01T08:16:05.513Z,50.3
2018-03-01T08:17:05.547Z,50.25
2018-03-01T08:18:05.518Z,50.24
2018-03-01T08:19:05.562Z,50.12
2018-03-01T08:20:05.530Z,50.09
2018-03-01T08:21:05.530Z,50.1
2018-03-01T08:22:05.538Z,50.06
2018-03-01T08:23:05.550Z,50.01
2018-03-01T08:24:05.561Z,49.92
2018-03-01T08:25:05.555Z,49.86
2018-03-01T08:26:05.552Z,49.86
2018-03-01T08:27:05.558Z,49.68
2018-03-01T08:28:05.548Z,49.85
2018-03-01T08:29:05.832Z,49.76
2018-03-01T08:30:05.574Z,49.66
2018-03-01T08:31:05.576Z,49.49
2018-03-01T08:32:05.571Z,49.41
2018-03-01T08:33:05.567Z,49.38
2018-03-01T08:34:05.604Z,49.53
2018-03-01T08:35:05.582Z,49.43
2018-03-01T08:36:05.586Z,49.35
2018-03-01T08:37:05.581Z,49.2
2018-03-01T08:38:05.585Z,48.84
2018-03-01T08:39:05.772Z,48.78
2018-03-01T08:40:05.598Z,48.76
2018-03-01T08:41:05.601Z,48.9
2018-03-01T08:42:05.607Z,48.42
2018-03-01T08:43:05.608Z,48.66
2018-03-01T08:44:05.630Z,48.57
2018-03-01T08:45:05.627Z,48.51
2018-03-01T08:46:05.616Z,48.3
2018-03-01T08:47:05.793Z,48.36
2018-03-01T08:48:05.622Z,48.44
2018-03-01T08:49:05.921Z,48.17
2018-03-01T08:50:05.629Z,48.06
2018-03-01T08:51:05.634Z,47.9
2018-03-01T08:52:05.662Z,47.69
2018-03-01T08:53:05.651Z,47.66
2018-03-01T08:54:05.664Z,47.5
2018-03-01T08:55:05.649Z,47.6
2018-03-01T08:56:05.653Z,47.56
2018-03-01T08:57:05.653Z,47.46
2018-03-01T08:58:05.668Z,47.62
2018-03-01T08:59:05.677Z,47.07
2018-03-01T09:00:05.677Z,47.09
2018-03-01T09:01:05.682Z,47.08
2018-03-01T09:02:05.666Z,47.1
2018-03-01T09:03:05.671Z,47.06
2018-03-01T09:04:05.703Z,47.06
2018-03-01T09:05:05.968Z,46.73
2018-03-01T09:06:05.672Z,46.49
2018-03-01T09:07:05.673Z,46.76
2018-03-01T09:08:05.688Z,46.3
2018-03-01T09:09:05.677Z,46.42
2018-03-01T09:10:05.697Z,46.39
2018-03-01T09:11:05.703Z,46.29
2018-03-01T09:12:05.690Z,46.19
2018-03-01T09:13:05.689Z,46.43
2018-03-01T09:14:05.700Z,46.67
2018-03-01T09:15:05.714Z,46.89
2018-03-01T09:16:05.724Z,46.58
2018-03-01T09:17:05.702Z,46.31
2018-03-01T09:18:05.704Z,46.03
2018-03-01T09:19:05.709Z,45.65
2018-03-01T09:20:05.714Z,45.86
2018-03-01T09:21:05.753Z,45.85
2018-03-01T09:22:05.725Z,45.89
2018-03-01T09:23:05.728Z,45.87
2018-03-01T09:24:05.735Z,45.5
2018-03-01T09:25:05.748Z,45.8
2018-03-01T09:26:06.007Z,45.76
2018-03-01T09:27:05.747Z,45.45
2018-03-01T09:28:05.752Z,45.55
2018-03-01T09:29:05.762Z,45.56
2018-03-01T09:30:05.768Z,45.32
2018-03-01T09:31:05.775Z,45.81
2018-03-01T09:32:05.765Z,45.48
2018-03-01T09:33:05.756Z,45.2
2018-03-01T09:34:05.760Z,45.12
2018-03-01T09:35:05.769Z,44.85
2018-03-01T09:36:05.797Z,44.81
2018-03-01T09:37:05.774Z,44.63
2018-03-01T09:38:05.813Z,44.72
2018-03-01T09:39:05.785Z,44.94
2018-03-01T09:40:05.784Z,45
2018-03-01T09:41:05.803Z,44.71
2018-03-01T09:42:05.789Z,44.93
2018-03-01T09:43:05.792Z,44.62
2018-03-01T09:44:05.802Z,44.58
2018-03-01T09:45:05.803Z,44.72
2018-03-01T09:46:05.816Z,44.58
2018-03-01T09:47:05.790Z,44.33
2018-03-01T09:48:05.799Z,44.43
2018-03-01T09:49:05.808Z,44.13
2018-03-01T09:50:05.825Z,44.4
2018-03-01T09:51:05.823Z,44.45
2018-03-01T09:52:05.821Z,44.23
2018-03-01T09:53:05.825Z,44.43
2018-03-01T09:54:05.831Z,43.98
2018-03-01T09:55:05.840Z,43.93
2018-03-01T09:56:05.843Z,44.08
2018-03-01T09:57:05.861Z,43.94
2018-03-01T09:58:05.855Z,44.02
2018-03-01T09:59:05.855Z,43.79
2018-03-01T10:00:05.861Z,43.59
2018-03-01T10:01:05.861Z,43.33
2018-03-01T10:02:05.886Z,43.47
2018-03-01T10:03:05.873Z,43.39
2018-03-01T10:04:05.870Z,43.29
2018-03-01T10:05:05.874Z,43.53
2018-03-01T10:06:05.873Z,43.22
2018-03-01T10:07:05.910Z,42.89
2018-03-01T10:08:05.878Z,42.81
2018-03-01T10:09:05.884Z,42.38
2018-03-01T10:10:05.892Z,42.52
2018-03-01T10:11:05.892Z,42.7
2018-03-01T10:12:05.898Z,42.44
2018-03-01T10:13:05.919Z,42.27
2018-03-01T10:14:05.901Z,42.29
2018-03-01T10:15:06.065Z,42.47
2018-03-01T10:16:05.903Z,42.64
2018-03-01T10:17:05.907Z,42.51
2018-03-01T10:18:05.973Z,42.57
2018-03-01T10:19:05.904Z,42.63
2018-03-01T10:20:05.901Z,42.55
2018-03-01T10:21:05.909Z,42.73
2018-03-01T10:22:05.915Z,42.69
2018-03-01T10:23:06.196Z,42.86
2018-03-01T10:24:05.923Z,42.96
2018-03-01T10:25:05.927Z,42.75
2018-03-01T10:26:05.925Z,43.06
2018-03-01T10:27:05.939Z,43.13
2018-03-01T10:28:05.957Z,43.12
2018-03-01T10:29:05.945Z,42.98
2018-03-01T10:30:05.951Z,43.32
2018-03-01T10:31:05.951Z,43.02
2018-03-01T10:32:05.954Z,43.04
2018-03-01T10:33:06.216Z,43.22
2018-03-01T10:34:05.960Z,42.96
2018-03-01T10:35:05.964Z,42.76
2018-03-01T10:36:05.961Z,42.62
2018-03-01T10:37:05.966Z,42.91
2018-03-01T10:38:05.983Z,42.58
2018-03-01T10:39:06.012Z,42.78
2018-03-01T10:40:05.966Z,42.71
2018-03-01T10:41:05.973Z,42.53
2018-03-01T10:42:05.982Z,42.87
2018-03-01T10:43:06.008Z,42.62
2018-03-01T10:44:05.981Z,42.92
2018-03-01T10:45:05.976Z,42.98
2018-03-01T10:46:05.976Z,42.7
2018-03-01T10:47:05.977Z,42.34
2018-03-01T10:48:05.984Z,42.41
2018-03-01T10:49:05.991Z,42.34
2018-03-01T10:50:05.997Z,41.85
2018-03-01T10:51:06.006Z,42.25
2018-03-01T10:52:06.005Z,42.36
2018-03-01T10:53:06.004Z,41.94
2018-03-01T10:54:06.010Z,41.75
2018-03-01T10:55:06.029Z,41.76
2018-03-01T10:56:06.019Z,41.85
2018-03-01T10:57:06.025Z,41.39
2018-03-01T10:58:06.038Z,42.11
2018-03-01T10:59:06.038Z,41.93
2018-03-01T11:00:06.037Z,41.93
2018-03-01T11:01:06.038Z,41.58
2018-03-01T11:02:06.038Z,41.43
2018-03-01T11:03:06.053Z,41.2
2018-03-01T11:04:06.042Z,40.9
2018-03-01T11:05:06.047Z,40.85
2018-03-01T11:06:06.049Z,41.08
2018-03-01T11:07:06.045Z,41.27
2018-03-01T11:08:06.049Z,41.52
2018-03-01T11:09:06.055Z,41.23
2018-03-01T11:10:06.323Z,41.21
2018-03-01T11:11:06.049Z,41.14
2018-03-01T11:12:06.111Z,41.07
2018-03-01T11:13:06.062Z,40.98
2018-03-01T11:14:06.069Z,41.1
2018-03-01T11:15:06.097Z,40.87
2018-03-01T11:16:06.076Z,41.06
2018-03-01T11:17:06.075Z,41.19
2018-03-01T11:20:12.323Z,40.79
2018-03-01T11:21:06.230Z,40.74
2018-03-01T11:22:06.121Z,40.57
2018-03-01T11:23:06.090Z,40.58
2018-03-01T11:24:06.251Z,40.61
2018-03-01T11:25:06.258Z,40.72
2018-03-01T11:26:06.135Z,40.79
2018-03-01T11:27:06.284Z,40.82
2018-03-01T11:28:06.113Z,40.71
2018-03-01T11:29:06.113Z,40.46
2018-03-01T11:30:06.121Z,40.34
2018-03-01T11:31:06.120Z,40.24
2018-03-01T11:32:06.143Z,40.36
2018-03-01T11:33:06.115Z,40.34
2018-03-01T11:34:06.164Z,40.29
2018-03-01T11:35:06.165Z,40.53
2018-03-01T11:36:06.121Z,40.35
2018-03-01T11:37:06.123Z,40.47
2018-03-01T11:38:06.126Z,40.23
2018-03-01T11:39:06.144Z,40.13
2018-03-01T11:40:06.161Z,39.95
2018-03-01T11:41:06.134Z,39.99
2018-03-01T11:42:06.141Z,39.67
2018-03-01T11:43:06.135Z,39.71
2018-03-01T11:44:06.190Z,39.69
2018-03-01T11:45:06.151Z,39.84
2018-03-01T11:46:06.155Z,39.64
2018-03-01T11:47:06.162Z,39.45
2018-03-01T11:48:06.169Z,39.39
2018-03-01T11:49:06.208Z,39.85
2018-03-01T11:50:06.175Z,39.63
2018-03-01T11:51:06.177Z,39.57
2018-03-01T11:52:06.192Z,39.18
2018-03-01T11:53:06.183Z,39.78
2018-03-01T11:54:06.206Z,39.27
2018-03-01T11:55:06.176Z,39.13
2018-03-01T11:56:06.181Z,39.37
2018-03-01T11:57:06.185Z,39.07
2018-03-01T11:58:06.190Z,38.89
2018-03-01T11:59:06.224Z,38.61
2018-03-01T12:00:06.225Z,38.92
2018-03-01T12:01:06.216Z,38.51
2018-03-01T12:02:06.202Z,39.02
2018-03-01T12:03:06.203Z,38.75
2018-03-01T12:04:06.205Z,38.58
2018-03-01T12:05:06.211Z,38.39
2018-03-01T12:06:06.261Z,38.41
2018-03-01T12:07:06.209Z,38.24
2018-03-01T12:08:06.212Z,38.3
2018-03-01T12:09:06.219Z,37.94
2018-03-01T12:10:06.209Z,38.17
2018-03-01T12:11:06.222Z,38.13
2018-03-01T12:12:06.220Z,38
2018-03-01T12:13:06.226Z,37.83
2018-03-01T12:14:06.231Z,37.08
2018-03-01T12:15:06.262Z,37.57
2018-03-01T12:16:06.243Z,37.09
2018-03-01T12:17:06.261Z,37
2018-03-01T12:18:06.269Z,37.32
2018-03-01T12:19:06.250Z,36.95
2018-03-01T12:20:06.251Z,37.06
2018-03-01T12:21:06.245Z,36.72
2018-03-01T12:22:06.293Z,36.85
2018-03-01T12:23:06.281Z,36.77
2018-03-01T12:24:06.259Z,36.81
2018-03-01T12:25:06.267Z,36.47
2018-03-01T12:26:06.272Z,36.71
2018-03-01T12:27:06.266Z,36.72
2018-03-01T12:28:06.533Z,36.65
2018-03-01T12:29:06.281Z,36.78
2018-03-01T12:30:06.442Z,36.92
2018-03-01T12:31:06.272Z,36.48
2018-03-01T12:32:06.275Z,36.82
2018-03-01T12:33:06.301Z,36.45
2018-03-01T12:34:06.282Z,36.53
2018-03-01T12:35:06.292Z,36.59
2018-03-01T12:36:06.299Z,36.06
2018-03-01T12:37:06.301Z,36.22
2018-03-01T12:38:06.343Z,36.11
2018-03-01T12:39:06.302Z,36.36
2018-03-01T12:40:06.456Z,35.88
2018-03-01T12:41:06.317Z,36.13
2018-03-01T12:42:06.304Z,35.98
2018-03-01T12:43:06.331Z,35.92
2018-03-01T12:44:06.313Z,36.09
2018-03-01T12:45:06.318Z,36.1
2018-03-01T12:46:06.344Z,35.79
2018-03-01T12:47:06.316Z,35.68
2018-03-01T12:48:06.692Z,35.95
2018-03-01T12:49:06.322Z,35.8
2018-03-01T12:50:06.322Z,35.9
2018-03-01T12:51:06.328Z,35.89
2018-03-01T12:52:06.372Z,36.43
2018-03-01T12:53:06.352Z,35.93
2018-03-01T12:54:06.376Z,35.92
2018-03-01T12:55:06.338Z,35.55
2018-03-01T12:56:06.349Z,35.77
2018-03-01T12:57:06.347Z,35.88